createdAt,value
2017-05-18T00:03:47.196Z,23.40
2017-05-18T00:06:15.502Z,23.30
2017-05-18T00:08:43.493Z,23.30
2017-05-18T00:11:11.821Z,23.30
2017-05-18T00:13:39.788Z,23.20
2017-05-18T00:16:08.160Z,23.40
2017-05-18T00:18:36.108Z,23.30
2017-05-18T00:21:04.043Z,23.30
2017-05-18T00:23:33.131Z,23.40
2017-05-18T00:26:01.440Z,23.40
2017-05-18T00:28:29.763Z,23.30
2017-05-18T00:30:58.863Z,23.20
2017-05-18T00:33:27.189Z,23.20
2017-05-18T00:35:55.134Z,23.30
2017-05-18T00:38:24.252Z,23.20
2017-05-18T00:43:21.075Z,23.20
2017-05-18T00:45:49.438Z,23.10
2017-05-18T00:48:17.378Z,23.20
2017-05-18T00:50:45.326Z,23.10
2017-05-18T00:58:12.251Z,23.20
2017-05-18T01:03:09.912Z,23.20
2017-05-18T01:05:38.231Z,23.10
2017-05-18T01:08:06.515Z,23.10
2017-05-18T01:10:34.442Z,23.00
2017-05-18T01:13:02.735Z,23.00
2017-05-18T01:15:32.107Z,23.00
2017-05-18T01:20:29.294Z,23.10
2017-05-18T01:22:57.907Z,23.10
2017-05-18T01:25:25.827Z,23.00
2017-05-18T01:27:54.120Z,22.90
2017-05-18T01:30:22.644Z,22.90
2017-05-18T01:32:50.640Z,22.90
2017-05-18T01:35:19.314Z,22.90
2017-05-18T01:37:47.655Z,22.90
2017-05-18T01:40:15.578Z,22.90
2017-05-18T01:42:43.899Z,22.70
2017-05-18T01:45:12.287Z,22.60
2017-05-18T01:50:09.156Z,22.60
2017-05-18T01:52:37.511Z,22.50
2017-05-18T01:55:06.548Z,22.40
2017-05-18T01:57:35.591Z,22.40
2017-05-18T02:00:03.955Z,22.40
2017-05-18T02:05:01.499Z,22.20
2017-05-18T02:07:29.860Z,22.20
2017-05-18T02:09:58.170Z,22.20
2017-05-18T02:12:26.091Z,22.20
2017-05-18T02:14:54.431Z,22.10
2017-05-18T02:17:23.463Z,22.10
2017-05-18T02:19:51.383Z,22.10
2017-05-18T02:22:19.974Z,22.10
2017-05-18T02:24:48.270Z,22.10
2017-05-18T02:27:16.562Z,22.10
2017-05-18T02:29:44.941Z,22.00
2017-05-18T02:32:13.312Z,21.90
2017-05-18T02:37:12.415Z,21.90
2017-05-18T02:39:41.103Z,22.00
2017-05-18T02:42:09.047Z,22.00
2017-05-18T02:47:07.295Z,22.00
2017-05-18T02:52:04.912Z,22.00
2017-05-18T02:54:32.843Z,22.00
2017-05-18T02:57:01.138Z,22.00
2017-05-18T02:59:29.180Z,21.90
2017-05-18T03:01:57.509Z,21.90
2017-05-18T03:04:28.213Z,21.90
2017-05-18T03:06:56.567Z,21.80
2017-05-18T03:09:25.607Z,21.90
2017-05-18T03:11:53.905Z,21.90
2017-05-18T03:14:21.875Z,21.90
2017-05-18T03:16:50.171Z,21.80
2017-05-18T03:19:18.474Z,21.80
2017-05-18T03:21:47.562Z,21.80
2017-05-18T03:26:45.115Z,21.80
2017-05-18T03:31:42.735Z,21.50
2017-05-18T03:34:11.058Z,21.50
2017-05-18T03:36:40.205Z,21.50
2017-05-18T03:39:08.892Z,21.50
2017-05-18T03:41:37.191Z,21.60
2017-05-18T03:44:06.194Z,21.60
2017-05-18T03:49:03.363Z,21.60
2017-05-18T03:51:31.734Z,21.60
2017-05-18T03:53:59.680Z,21.60
2017-05-18T03:56:27.988Z,21.60
2017-05-18T03:58:56.347Z,21.60
2017-05-18T04:01:25.018Z,21.50
2017-05-18T04:03:53.310Z,21.40
2017-05-18T04:11:36.611Z,21.40
2017-05-18T04:14:04.548Z,21.40
2017-05-18T04:16:32.860Z,21.50
2017-05-18T04:19:00.841Z,21.60
2017-05-18T04:21:28.804Z,21.60
2017-05-18T04:23:57.122Z,21.60
2017-05-18T04:26:25.131Z,21.60
2017-05-18T04:28:54.198Z,21.60
2017-05-18T04:31:23.272Z,21.60
2017-05-18T04:33:51.641Z,21.70
2017-05-18T04:36:19.584Z,21.70
2017-05-18T04:41:16.870Z,21.60
2017-05-18T04:43:45.197Z,21.70
2017-05-18T04:48:42.859Z,21.70
2017-05-18T04:51:11.251Z,21.60
2017-05-18T04:53:39.234Z,21.60
2017-05-18T04:56:07.606Z,21.50
2017-05-18T04:58:35.552Z,21.50
2017-05-18T05:01:03.856Z,21.40
2017-05-18T05:03:32.968Z,21.40
2017-05-18T05:06:00.901Z,21.40
2017-05-18T05:08:29.212Z,21.30
2017-05-18T05:10:57.224Z,21.20
2017-05-18T05:13:25.161Z,21.20
2017-05-18T05:15:53.464Z,21.20
2017-05-18T05:18:21.468Z,21.20
2017-05-18T05:20:49.768Z,21.10
2017-05-18T05:23:18.812Z,21.00
2017-05-18T05:25:47.165Z,20.90
2017-05-18T05:30:44.736Z,20.80
2017-05-18T05:33:13.212Z,20.60
2017-05-18T05:35:41.153Z,20.50
2017-05-18T05:38:09.488Z,20.50
2017-05-18T05:43:06.908Z,20.50
2017-05-18T05:45:35.952Z,20.40
2017-05-18T05:50:32.837Z,20.30
2017-05-18T05:53:01.145Z,20.30
2017-05-18T05:55:29.150Z,20.20
2017-05-18T05:57:57.469Z,20.10
2017-05-18T06:00:25.409Z,20.10
2017-05-18T06:02:54.485Z,20.00
2017-05-18T06:05:22.792Z,20.00
2017-05-18T06:12:48.581Z,20.00
2017-05-18T06:17:46.185Z,20.10
2017-05-18T06:20:15.242Z,20.30
2017-05-18T06:22:43.565Z,20.30
2017-05-18T06:25:12.705Z,20.40
2017-05-18T06:27:40.654Z,20.30
2017-05-18T06:30:08.655Z,20.30
2017-05-18T06:32:37.787Z,20.30
2017-05-18T06:35:06.856Z,20.30
2017-05-18T06:37:35.985Z,20.40
2017-05-18T06:40:03.985Z,20.50
2017-05-18T06:42:32.297Z,20.40
2017-05-18T06:45:00.608Z,20.50
2017-05-18T06:47:29.719Z,20.50
2017-05-18T06:49:58.037Z,20.50
2017-05-18T06:52:26.353Z,20.50
2017-05-18T06:54:54.704Z,20.50
2017-05-18T06:57:23.013Z,20.50
2017-05-18T06:59:50.957Z,20.40
2017-05-18T07:02:19.336Z,20.40
2017-05-18T07:04:48.392Z,20.30
2017-05-18T07:07:16.714Z,20.30
2017-05-18T07:09:45.209Z,20.40
2017-05-18T07:12:13.540Z,20.40
2017-05-18T07:14:42.628Z,20.40
2017-05-18T07:17:11.003Z,20.50
2017-05-18T07:19:38.966Z,20.50
2017-05-18T07:22:07.291Z,20.40
2017-05-18T07:24:35.741Z,20.50
2017-05-18T07:27:03.689Z,20.50
2017-05-18T07:34:30.220Z,20.60
2017-05-18T07:39:28.559Z,20.70
2017-05-18T07:41:56.877Z,20.80
2017-05-18T07:44:25.188Z,20.60
2017-05-18T07:46:54.345Z,20.70
2017-05-18T07:54:21.793Z,20.80
2017-05-18T07:56:50.474Z,21.00
2017-05-18T07:59:18.789Z,21.30
2017-05-18T08:01:46.776Z,21.50
2017-05-18T08:04:15.089Z,21.70
2017-05-18T08:06:43.042Z,21.80
2017-05-18T08:09:11.421Z,22.10
2017-05-18T08:11:39.770Z,22.10
2017-05-18T08:14:07.733Z,22.20
2017-05-18T08:16:36.488Z,22.40
2017-05-18T08:19:04.766Z,22.50
2017-05-18T08:21:32.710Z,22.60
2017-05-18T08:24:00.717Z,22.60
2017-05-18T08:26:29.041Z,22.60
2017-05-18T08:28:58.102Z,22.50
2017-05-18T08:31:26.107Z,22.40
2017-05-18T08:33:54.421Z,22.20
2017-05-18T08:36:22.365Z,22.00
2017-05-18T08:38:50.350Z,22.20
2017-05-18T08:41:18.665Z,22.10
2017-05-18T08:43:46.977Z,22.30
2017-05-18T08:46:15.246Z,22.20
2017-05-18T08:48:43.534Z,22.10
2017-05-18T08:51:12.228Z,22.10
2017-05-18T08:56:09.880Z,22.30
2017-05-18T09:03:35.709Z,22.10
2017-05-18T09:06:03.649Z,21.90
2017-05-18T09:11:02.006Z,21.90
2017-05-18T09:13:29.952Z,21.80
2017-05-18T09:15:58.324Z,21.70
2017-05-18T09:18:26.272Z,21.80
2017-05-18T09:20:54.225Z,21.70
2017-05-18T09:23:22.589Z,21.60
2017-05-18T09:25:50.533Z,21.50
2017-05-18T09:28:18.846Z,21.60
2017-05-18T09:30:47.219Z,21.50
2017-05-18T09:33:15.173Z,21.60
2017-05-18T09:35:43.502Z,21.60
2017-05-18T09:40:41.189Z,21.40
2017-05-18T09:43:09.530Z,21.40
2017-05-18T09:48:06.785Z,21.20
2017-05-18T09:50:34.729Z,21.30
2017-05-18T09:53:03.110Z,21.20
2017-05-18T09:55:31.800Z,21.20
2017-05-18T09:58:00.114Z,21.10
2017-05-18T10:00:28.129Z,21.10
2017-05-18T10:02:56.087Z,21.10
2017-05-18T10:05:24.406Z,21.10
2017-05-18T10:07:52.399Z,21.10
2017-05-18T10:10:20.713Z,21.10
2017-05-18T10:12:49.029Z,21.00
2017-05-18T10:15:17.389Z,20.90
2017-05-18T10:17:45.337Z,20.90
2017-05-18T10:20:13.664Z,20.90
2017-05-18T10:22:42.040Z,20.80
2017-05-18T10:25:10.000Z,20.80
2017-05-18T10:27:38.318Z,20.80
2017-05-18T10:30:06.684Z,20.70
2017-05-18T10:32:34.640Z,20.60
2017-05-18T10:35:02.962Z,20.60
2017-05-18T10:40:00.220Z,20.60
2017-05-18T10:42:28.179Z,20.60
2017-05-18T10:44:56.174Z,20.60
2017-05-18T10:47:24.877Z,20.50
2017-05-18T10:49:53.192Z,20.40
2017-05-18T10:52:21.821Z,20.40
2017-05-18T10:54:50.518Z,20.30
2017-05-18T10:57:19.205Z,20.30
2017-05-18T10:59:48.058Z,20.30
2017-05-18T11:04:46.166Z,20.40
2017-05-18T11:07:15.298Z,20.30
2017-05-18T11:09:43.275Z,20.30
2017-05-18T11:12:11.252Z,20.30
2017-05-18T11:14:39.633Z,20.30
2017-05-18T11:17:07.589Z,20.30
2017-05-18T11:19:35.915Z,20.30
2017-05-18T11:22:03.933Z,20.30
2017-05-18T11:24:31.882Z,20.40
2017-05-18T11:26:59.834Z,20.40
2017-05-18T11:29:28.193Z,20.40
2017-05-18T11:31:56.137Z,20.40
2017-05-18T11:34:24.458Z,20.40
2017-05-18T11:36:52.822Z,20.50
2017-05-18T11:39:21.134Z,20.40
2017-05-18T11:41:49.459Z,20.40
2017-05-18T11:44:17.783Z,20.30
2017-05-18T11:46:45.762Z,20.30
2017-05-18T11:49:14.103Z,20.30
2017-05-18T11:51:42.106Z,20.30
2017-05-18T11:54:10.521Z,20.40
2017-05-18T11:56:39.241Z,20.30
2017-05-18T11:59:07.717Z,20.30
2017-05-18T12:01:35.664Z,20.30
2017-05-18T12:04:04.347Z,20.30
2017-05-18T12:06:32.725Z,20.20
2017-05-18T12:09:01.049Z,20.30
2017-05-18T12:11:29.371Z,20.30
2017-05-18T12:13:58.108Z,20.30
2017-05-18T12:16:26.425Z,20.40
2017-05-18T12:18:54.741Z,20.30
2017-05-18T12:21:23.137Z,20.40
2017-05-18T12:23:51.082Z,20.50
2017-05-18T12:26:19.774Z,20.60
2017-05-18T12:28:47.785Z,20.50
2017-05-18T12:31:16.132Z,20.40
2017-05-18T12:33:44.114Z,20.60
2017-05-18T12:36:13.265Z,20.70
2017-05-18T12:38:41.602Z,20.80
2017-05-18T12:41:09.591Z,20.90
2017-05-18T12:43:37.592Z,21.00
2017-05-18T12:46:05.909Z,21.00
2017-05-18T12:48:34.225Z,21.00
2017-05-18T12:51:02.222Z,21.00
2017-05-18T12:53:30.545Z,21.10
2017-05-18T12:55:58.861Z,21.10
2017-05-18T13:00:56.556Z,21.30
2017-05-18T13:03:24.874Z,21.30
2017-05-18T13:05:53.237Z,21.30
2017-05-18T13:10:50.457Z,21.40
2017-05-18T13:13:18.821Z,21.40
2017-05-18T13:15:46.785Z,21.40
2017-05-18T13:23:13.043Z,21.30
2017-05-18T13:25:41.389Z,21.40
2017-05-18T13:28:09.415Z,21.50
2017-05-18T13:30:37.365Z,21.50
2017-05-18T13:33:05.682Z,21.50
2017-05-18T13:35:34.057Z,21.50
2017-05-18T13:38:02.009Z,21.40
2017-05-18T13:40:30.322Z,21.30
2017-05-18T13:42:58.727Z,21.40
2017-05-18T13:45:26.668Z,21.40
2017-05-18T13:47:54.997Z,21.50
2017-05-18T13:50:23.367Z,21.50
2017-05-18T13:55:20.591Z,21.70
2017-05-18T13:57:48.970Z,21.70
2017-05-18T14:00:16.945Z,21.80
2017-05-18T14:02:44.900Z,21.70
2017-05-18T14:05:13.304Z,21.80
2017-05-18T14:10:10.633Z,21.80
2017-05-18T14:15:08.007Z,21.80
2017-05-18T14:17:36.325Z,21.80
2017-05-18T14:20:04.693Z,21.90
2017-05-18T14:22:33.021Z,21.80
2017-05-18T14:27:31.122Z,22.10
2017-05-18T14:32:28.418Z,22.10
2017-05-18T14:34:56.425Z,22.10
2017-05-18T14:37:24.749Z,22.20
2017-05-18T14:39:52.699Z,22.20
2017-05-18T14:42:20.762Z,22.20
2017-05-18T14:44:48.709Z,22.20
2017-05-18T14:47:17.076Z,22.20
2017-05-18T14:49:45.141Z,22.30
2017-05-18T14:52:13.117Z,22.30
2017-05-18T14:54:41.520Z,22.30
2017-05-18T14:57:09.633Z,22.30
2017-05-18T15:02:06.881Z,22.40
2017-05-18T15:12:02.130Z,21.90
2017-05-18T15:14:31.189Z,21.70
2017-05-18T15:17:00.329Z,21.70
2017-05-18T15:19:28.718Z,21.70
2017-05-18T15:21:57.839Z,21.80
2017-05-18T15:24:26.521Z,21.80
2017-05-18T15:26:55.497Z,21.80
2017-05-18T15:29:23.832Z,21.80
2017-05-18T15:34:21.930Z,21.60
2017-05-18T15:36:50.269Z,21.60
2017-05-18T15:39:19.329Z,21.20
2017-05-18T15:41:48.089Z,21.40
2017-05-18T15:44:16.769Z,21.40
2017-05-18T15:46:45.139Z,21.40
2017-05-18T15:49:14.289Z,21.40
2017-05-18T15:51:42.650Z,21.40
2017-05-18T15:54:11.005Z,21.40
2017-05-18T15:56:39.046Z,21.20
2017-05-18T15:59:08.393Z,21.10
2017-05-18T16:04:05.678Z,21.20
2017-05-18T16:06:34.737Z,21.10
2017-05-18T16:09:02.690Z,21.10
2017-05-18T16:11:30.689Z,21.20
2017-05-18T16:13:59.079Z,21.20
2017-05-18T16:16:27.053Z,21.20
2017-05-18T16:18:55.069Z,21.20
2017-05-18T16:21:23.389Z,21.00
2017-05-18T16:23:51.710Z,21.00
2017-05-18T16:26:20.914Z,20.90
2017-05-18T16:28:49.968Z,21.00
2017-05-18T16:31:18.292Z,21.00
2017-05-18T16:33:46.689Z,21.00
2017-05-18T16:36:14.651Z,21.00
2017-05-18T16:38:42.984Z,21.00
2017-05-18T16:41:11.414Z,21.00
2017-05-18T16:43:39.379Z,20.90
2017-05-18T16:46:08.513Z,20.90
2017-05-18T16:48:36.812Z,20.80
2017-05-18T16:51:04.768Z,20.80
2017-05-18T16:53:32.715Z,20.80
2017-05-18T16:56:00.709Z,20.80
2017-05-18T16:58:29.037Z,20.80
2017-05-18T17:00:56.994Z,20.70
2017-05-18T17:03:25.746Z,20.70
2017-05-18T17:08:23.689Z,20.70
2017-05-18T17:10:52.793Z,20.80
2017-05-18T17:15:50.749Z,20.80
2017-05-18T17:18:18.771Z,20.80
2017-05-18T17:20:47.880Z,20.80
2017-05-18T17:23:15.821Z,20.80
2017-05-18T17:30:42.464Z,20.70
2017-05-18T17:33:10.475Z,20.80
2017-05-18T17:35:38.809Z,20.80
2017-05-18T17:38:06.756Z,20.70
2017-05-18T17:40:34.756Z,20.70
2017-05-18T17:43:03.069Z,20.70
2017-05-18T17:45:31.013Z,20.70
2017-05-18T17:47:59.700Z,20.80
2017-05-18T17:50:27.654Z,20.70
2017-05-18T17:52:56.718Z,20.80
2017-05-18T17:57:54.394Z,20.90
2017-05-18T18:02:52.029Z,20.70
2017-05-18T18:07:49.229Z,20.70
2017-05-18T18:10:18.346Z,20.50
2017-05-18T18:12:47.035Z,20.50
2017-05-18T18:17:44.675Z,20.50
2017-05-18T18:20:12.633Z,20.50
2017-05-18T18:22:40.957Z,20.50
2017-05-18T18:25:08.978Z,20.50
2017-05-18T18:27:36.970Z,20.40
2017-05-18T18:30:05.667Z,20.50
2017-05-18T18:32:34.050Z,20.50
2017-05-18T18:35:01.996Z,20.50
2017-05-18T18:37:29.951Z,20.40
2017-05-18T18:39:58.333Z,20.40
2017-05-18T18:44:55.550Z,20.40
2017-05-18T18:47:23.946Z,20.30
2017-05-18T18:49:51.885Z,20.10
2017-05-18T18:52:20.945Z,20.20
2017-05-18T18:54:50.061Z,20.30
2017-05-18T18:57:18.376Z,20.30
2017-05-18T18:59:46.701Z,20.30
2017-05-18T19:02:15.091Z,20.30
2017-05-18T19:04:43.457Z,20.20
2017-05-18T19:07:11.788Z,20.00
2017-05-18T19:09:40.923Z,20.00
2017-05-18T19:12:09.269Z,20.00
2017-05-18T19:14:37.968Z,19.90
2017-05-18T19:17:06.001Z,19.90
2017-05-18T19:19:34.329Z,19.90
2017-05-18T19:22:02.324Z,19.90
2017-05-18T19:24:31.065Z,19.80
2017-05-18T19:26:59.385Z,19.70
2017-05-18T19:29:27.714Z,19.70
2017-05-18T19:31:56.701Z,19.70
2017-05-18T19:34:25.257Z,19.80
2017-05-18T19:36:53.958Z,19.70
2017-05-18T19:41:51.236Z,19.60
2017-05-18T19:44:19.547Z,19.60
2017-05-18T19:46:48.665Z,19.60
2017-05-18T19:49:17.004Z,19.60
2017-05-18T19:51:44.997Z,19.40
2017-05-18T19:54:13.413Z,19.50
2017-05-18T19:56:42.489Z,19.40
2017-05-18T20:01:39.862Z,19.40
2017-05-18T20:04:08.221Z,19.40
2017-05-18T20:06:36.187Z,19.30
2017-05-18T20:09:04.570Z,19.20
2017-05-18T20:11:33.632Z,19.20
2017-05-18T20:14:01.581Z,19.30
2017-05-18T20:16:30.335Z,19.30
2017-05-18T20:23:56.160Z,19.20
2017-05-18T20:26:24.116Z,19.10
2017-05-18T20:28:52.438Z,19.00
2017-05-18T20:31:20.815Z,19.10
2017-05-18T20:33:48.777Z,19.00
2017-05-18T20:41:15.720Z,19.10
2017-05-18T20:43:43.709Z,19.00
2017-05-18T20:46:12.108Z,18.90
2017-05-18T20:48:40.476Z,18.90
2017-05-18T20:53:37.433Z,18.90
2017-05-18T20:56:05.397Z,18.90
2017-05-18T20:58:33.728Z,18.80
2017-05-18T21:01:01.741Z,18.80
2017-05-18T21:03:30.057Z,18.60
2017-05-18T21:08:27.351Z,18.80
2017-05-18T21:10:56.435Z,18.80
2017-05-18T21:13:25.132Z,18.80
2017-05-18T21:18:23.141Z,18.90
2017-05-18T21:20:51.453Z,18.80
2017-05-18T21:23:19.841Z,18.80
2017-05-18T21:25:47.784Z,18.90
2017-05-18T21:30:45.061Z,18.90
2017-05-18T21:33:13.374Z,18.80
2017-05-18T21:35:41.321Z,18.80
2017-05-18T21:38:09.710Z,18.80
2017-05-18T21:40:38.044Z,18.80
2017-05-18T21:43:07.328Z,18.80
2017-05-18T21:48:05.849Z,18.80
2017-05-18T21:50:34.169Z,18.80
2017-05-18T21:53:02.179Z,18.90
2017-05-18T21:55:30.497Z,18.90
2017-05-18T21:57:59.555Z,18.90
2017-05-18T22:02:57.226Z,18.80
2017-05-18T22:07:54.881Z,18.80
2017-05-18T22:10:22.829Z,18.70
2017-05-18T22:17:49.377Z,18.70
2017-05-18T22:20:17.337Z,18.70
2017-05-18T22:22:45.713Z,18.70
2017-05-18T22:25:13.660Z,18.70
2017-05-18T22:27:41.991Z,18.70
2017-05-18T22:30:10.038Z,18.70
2017-05-18T22:32:37.997Z,18.70
2017-05-18T22:35:06.329Z,18.70
2017-05-18T22:37:34.330Z,18.70
2017-05-18T22:40:02.649Z,18.60
2017-05-18T22:42:30.965Z,18.70
2017-05-18T22:44:59.346Z,18.70
2017-05-18T22:47:27.303Z,18.70
2017-05-18T22:49:55.634Z,18.80
2017-05-18T22:52:24.024Z,18.80
2017-05-18T22:54:51.972Z,18.70
2017-05-18T22:57:20.285Z,18.70
2017-05-18T22:59:49.012Z,18.70
2017-05-18T23:02:16.959Z,18.70
2017-05-18T23:04:45.273Z,18.50
2017-05-18T23:07:16.105Z,18.50
2017-05-18T23:12:14.068Z,18.50
2017-05-18T23:14:42.073Z,18.60
2017-05-18T23:17:10.045Z,18.60
2017-05-18T23:19:38.382Z,18.50
2017-05-18T23:22:07.180Z,18.50
2017-05-18T23:24:35.874Z,18.50
2017-05-18T23:27:04.932Z,18.50
2017-05-18T23:29:33.296Z,18.50
2017-05-18T23:32:01.609Z,18.50
2017-05-18T23:34:30.673Z,18.50
2017-05-18T23:41:57.196Z,18.50
2017-05-18T23:44:25.240Z,18.50
2017-05-18T23:46:53.189Z,18.50
2017-05-18T23:49:22.247Z,18.50
2017-05-18T23:51:50.608Z,18.50
2017-05-18T23:56:48.557Z,18.50
2017-05-18T23:59:16.923Z,18.50
